Suomigracht — PHBT — position and weather

sailwx.info

Track history (hours):
 
Tides and Currents Weather Stations Pressure Air Temp Water Temp Dewpoint Dewpoint Depression Visibility Wind Speed Wind Dir Waves Ship Positions

Suomigracht

Last reported at 2016-Feb-01 09:33 UTC. Time now 2016-Feb-12 22:29 UTC.
Position N 38°02' W 030°13'.
Warning: this ship's position is 11 days out of date.

Length 173 m; beam 26 m.

Type: Cargo ship. MMSI: 246100000.

Date/timePositionNaut miles runAvg speedWind from/ knotsBaromVisibWave heightAir tempDewpointWater temp
2016-Feb-01 09:33N 38°02' W 030°13'1616.1
2016-Feb-01 08:33N 38°04' W 029°53'1615.7
2016-Feb-01 07:33N 38°07' W 029°33'1615.8
2016-Feb-01 06:33N 38°09' W 029°13'1615.9
2016-Feb-01 05:33N 38°12' W 028°53'1616.1
2016-Feb-01 04:33N 38°15' W 028°33'1716.6
2016-Feb-01 03:33N 38°18' W 028°12'1716.7
2016-Feb-01 02:33N 38°22' W 027°52'1717.0
2016-Feb-01 01:33N 38°27' W 027°31'1717.0
2016-Feb-01 00:34N 38°32' W 027°10'1717.3
2016-Jan-31 23:34N 38°39' W 026°50'1817.4
2016-Jan-31 22:32N 38°46' W 026°29'1717.3
2016-Jan-31 21:33N 38°53' W 026°09'2017.1
2016-Jan-31 20:25N 39°01' W 025°46'1917.0
2016-Jan-31 19:20N 39°09' W 025°24'  
2016-Jan-28 03:32N 50°27' W 000°29'1717.8
2016-Jan-28 02:33N 50°32' W 000°03'1716.3
2016-Jan-28 01:31N 50°36' E 000°22'1515.3
2016-Jan-28 00:33N 50°41' E 000°44'3316.4
2016-Jan-27 22:34N 51°02' E 001°24'1919.2
2016-Jan-27 21:33N 51°15' E 001°47'1817.8
2016-Jan-27 20:34N 51°31' E 002°02'1716.0
2016-Jan-27 19:31N 51°43' E 002°19'144 9.6
2016-Jan-27 04:33N 53°32' E 004°54'1312.6
2016-Jan-27 03:33N 53°37' E 005°14'1313.0
2016-Jan-27 02:34N 53°40' E 005°35'1212.5
2016-Jan-27 01:33N 53°44' E 005°56'10 9.7
2016-Jan-27 00:33N 53°43' E 006°12'1110.8
2016-Jan-26 23:33N 53°37' E 006°27'1211.8
2016-Jan-26 22:33N 53°32' E 006°45'5 5.3
2016-Jan-26 21:33N 53°27' E 006°50'0 0.0
2016-Jan-26 20:32N 53°27' E 006°50'0 0.0
2016-Jan-26 19:33N 53°27' E 006°50'0 0.0
2016-Jan-26 18:32N 53°27' E 006°50'0 0.0
2016-Jan-26 17:33N 53°27' E 006°50'0 0.0
2016-Jan-26 16:32N 53°27' E 006°50'0 0.0
2016-Jan-26 15:32N 53°27' E 006°50'0 0.0
2016-Jan-26 14:33N 53°27' E 006°50'0 0.0
2016-Jan-26 13:31N 53°27' E 006°50'0 0.0
2016-Jan-26 12:32N 53°27' E 006°50'0 0.0
2016-Jan-26 11:32N 53°27' E 006°50'0 0.0
2016-Jan-26 10:33N 53°27' E 006°50'0 0.0
2016-Jan-26 09:31N 53°27' E 006°50'0 0.0
2016-Jan-26 08:31N 53°27' E 006°50'0 0.0
2016-Jan-26 07:34N 53°27' E 006°50'0 0.0
2016-Jan-26 06:31N 53°27' E 006°50'0 0.0
2016-Jan-26 05:31N 53°27' E 006°50'0 0.0
2016-Jan-26 04:31N 53°27' E 006°50'0 0.0
2016-Jan-26 03:31N 53°27' E 006°50'0 0.0
2016-Jan-26 02:31N 53°27' E 006°50'0 0.0
2016-Jan-26 01:33N 53°27' E 006°50'0 0.0
2016-Jan-26 00:32N 53°27' E 006°50'0 0.0
2016-Jan-25 23:33N 53°27' E 006°50'0 0.0
2016-Jan-25 22:34N 53°27' E 006°50'6 5.7
2016-Jan-25 21:34N 53°32' E 006°45'1010.0
2016-Jan-25 20:33N 53°37' E 006°30'9 8.9
2016-Jan-25 19:33N 53°37' E 006°15'0 0.0
2016-Jan-25 18:33N 53°37' E 006°15'0 0.2
2016-Jan-25 17:33N 53°37' E 006°15'0 0.1
2016-Jan-25 16:33N 53°37' E 006°15'0 0.0
2016-Jan-25 15:34N 53°37' E 006°15'0 0.0
2016-Jan-25 14:33N 53°37' E 006°15'0 0.0
2016-Jan-25 13:33N 53°37' E 006°15'0 0.1
2016-Jan-25 12:33N 53°37' E 006°15'0 0.1
2016-Jan-25 11:33N 53°37' E 006°15'0 0.1
2016-Jan-25 10:33N 53°37' E 006°15'0 0.0
2016-Jan-25 09:33N 53°37' E 006°15'3 3.0
2016-Jan-25 08:33N 53°40' E 006°14'4 4.2
2016-Jan-25 07:33N 53°44' E 006°11'3 3.2
2016-Jan-25 06:34N 53°47' E 006°09'6 5.5
2016-Jan-25 05:32N 53°52' E 006°09'8 7.6
2016-Jan-25 04:32N 53°59' E 006°15'6711.2
2016-Jan-24 22:32N 55°05' E 006°39'19812.4
2016-Jan-24 06:33N 57°48' E 010°02'1514.8
2016-Jan-24 05:33N 57°48' E 010°30'1010.4
2016-Jan-24 04:33N 57°42' E 010°46'7 6.0
2016-Jan-24 03:28N 57°38' E 010°37'0 0.0
2016-Jan-24 00:28N 57°38' E 010°37'0 0.0
2016-Jan-23 20:31N 57°38' E 010°37'9 9.1
2016-Jan-23 19:32N 57°35' E 010°52'1717.4
2016-Jan-23 18:33N 57°29' E 011°22'1716.7
2016-Jan-23 17:33N 57°14' E 011°35'11316.0
2016-Jan-23 10:29N 55°22' E 011°02'1313.7
2016-Jan-23 09:33N 55°10' E 011°01'1817.7
2016-Jan-23 08:34N 54°53' E 010°51'1515.2
2016-Jan-23 07:34N 54°38' E 010°54'1717.5
2016-Jan-23 06:33N 54°32' E 011°23'1717.2
2016-Jan-23 05:33N 54°26' E 011°51'1414.3
2016-Jan-23 04:34N 54°31' E 012°13'1615.6
2016-Jan-23 03:33N 54°42' E 012°32'4016.7
2016-Jan-23 01:10N 54°58' E 013°36'1016.8
2016-Jan-23 00:33N 55°01' E 013°53'1616.0
2016-Jan-22 23:33N 55°10' E 014°16'1616.4
2016-Jan-22 22:33N 55°24' E 014°32'1616.4
2016-Jan-22 21:33N 55°33' E 014°56'11616.4
2016-Jan-22 14:28N 56°58' E 017°18'1617.6
2016-Jan-22 13:34N 57°13' E 017°28'1717.3
2016-Jan-22 12:33N 57°29' E 017°40'  
Track history (hours):
 
Tides and Currents Weather Stations Pressure Air Temp Water Temp Dewpoint Dewpoint Depression Visibility Wind Speed Wind Dir Waves Ship Positions

Suomigracht

Last reported at 2016-Feb-01 09:33 UTC. Time now 2016-Feb-12 22:29 UTC.
Position N 38°02' W 030°13'.
Warning: this ship's position is 11 days out of date.

Length 173 m; beam 26 m.

Type: Cargo ship. MMSI: 246100000.

Date/timePositionNaut miles runAvg speedWind from/ knotsBaromVisibWave heightAir tempDewpointWater temp
2016-Feb-01 09:33N 38°02' W 030°13'1616.1
2016-Feb-01 08:33N 38°04' W 029°53'1615.7
2016-Feb-01 07:33N 38°07' W 029°33'1615.8
2016-Feb-01 06:33N 38°09' W 029°13'1615.9
2016-Feb-01 05:33N 38°12' W 028°53'1616.1
2016-Feb-01 04:33N 38°15' W 028°33'1716.6
2016-Feb-01 03:33N 38°18' W 028°12'1716.7
2016-Feb-01 02:33N 38°22' W 027°52'1717.0
2016-Feb-01 01:33N 38°27' W 027°31'1717.0
2016-Feb-01 00:34N 38°32' W 027°10'1717.3
2016-Jan-31 23:34N 38°39' W 026°50'1817.4
2016-Jan-31 22:32N 38°46' W 026°29'1717.3
2016-Jan-31 21:33N 38°53' W 026°09'2017.1
2016-Jan-31 20:25N 39°01' W 025°46'1917.0
2016-Jan-31 19:20N 39°09' W 025°24'  
2016-Jan-28 03:32N 50°27' W 000°29'1717.8
2016-Jan-28 02:33N 50°32' W 000°03'1716.3
2016-Jan-28 01:31N 50°36' E 000°22'1515.3
2016-Jan-28 00:33N 50°41' E 000°44'3316.4
2016-Jan-27 22:34N 51°02' E 001°24'1919.2
2016-Jan-27 21:33N 51°15' E 001°47'1817.8
2016-Jan-27 20:34N 51°31' E 002°02'1716.0
2016-Jan-27 19:31N 51°43' E 002°19'144 9.6
2016-Jan-27 04:33N 53°32' E 004°54'1312.6
2016-Jan-27 03:33N 53°37' E 005°14'1313.0
2016-Jan-27 02:34N 53°40' E 005°35'1212.5
2016-Jan-27 01:33N 53°44' E 005°56'10 9.7
2016-Jan-27 00:33N 53°43' E 006°12'1110.8
2016-Jan-26 23:33N 53°37' E 006°27'1211.8
2016-Jan-26 22:33N 53°32' E 006°45'5 5.3
2016-Jan-26 21:33N 53°27' E 006°50'0 0.0
2016-Jan-26 20:32N 53°27' E 006°50'0 0.0
2016-Jan-26 19:33N 53°27' E 006°50'0 0.0
2016-Jan-26 18:32N 53°27' E 006°50'0 0.0
2016-Jan-26 17:33N 53°27' E 006°50'0 0.0
2016-Jan-26 16:32N 53°27' E 006°50'0 0.0
2016-Jan-26 15:32N 53°27' E 006°50'0 0.0
2016-Jan-26 14:33N 53°27' E 006°50'0 0.0
2016-Jan-26 13:31N 53°27' E 006°50'0 0.0
2016-Jan-26 12:32N 53°27' E 006°50'0 0.0
2016-Jan-26 11:32N 53°27' E 006°50'0 0.0
2016-Jan-26 10:33N 53°27' E 006°50'0 0.0
2016-Jan-26 09:31N 53°27' E 006°50'0 0.0
2016-Jan-26 08:31N 53°27' E 006°50'0 0.0
2016-Jan-26 07:34N 53°27' E 006°50'0 0.0
2016-Jan-26 06:31N 53°27' E 006°50'0 0.0
2016-Jan-26 05:31N 53°27' E 006°50'0 0.0
2016-Jan-26 04:31N 53°27' E 006°50'0 0.0
2016-Jan-26 03:31N 53°27' E 006°50'0 0.0
2016-Jan-26 02:31N 53°27' E 006°50'0 0.0
2016-Jan-26 01:33N 53°27' E 006°50'0 0.0
2016-Jan-26 00:32N 53°27' E 006°50'0 0.0
2016-Jan-25 23:33N 53°27' E 006°50'0 0.0
2016-Jan-25 22:34N 53°27' E 006°50'6 5.7
2016-Jan-25 21:34N 53°32' E 006°45'1010.0
2016-Jan-25 20:33N 53°37' E 006°30'9 8.9
2016-Jan-25 19:33N 53°37' E 006°15'0 0.0
2016-Jan-25 18:33N 53°37' E 006°15'0 0.2
2016-Jan-25 17:33N 53°37' E 006°15'0 0.1
2016-Jan-25 16:33N 53°37' E 006°15'0 0.0
2016-Jan-25 15:34N 53°37' E 006°15'0 0.0
2016-Jan-25 14:33N 53°37' E 006°15'0 0.0
2016-Jan-25 13:33N 53°37' E 006°15'0 0.1
2016-Jan-25 12:33N 53°37' E 006°15'0 0.1
2016-Jan-25 11:33N 53°37' E 006°15'0 0.1
2016-Jan-25 10:33N 53°37' E 006°15'0 0.0
2016-Jan-25 09:33N 53°37' E 006°15'3 3.0
2016-Jan-25 08:33N 53°40' E 006°14'4 4.2
2016-Jan-25 07:33N 53°44' E 006°11'3 3.2
2016-Jan-25 06:34N 53°47' E 006°09'6 5.5
2016-Jan-25 05:32N 53°52' E 006°09'8 7.6
2016-Jan-25 04:32N 53°59' E 006°15'6711.2
2016-Jan-24 22:32N 55°05' E 006°39'19812.4
2016-Jan-24 06:33N 57°48' E 010°02'1514.8
2016-Jan-24 05:33N 57°48' E 010°30'1010.4
2016-Jan-24 04:33N 57°42' E 010°46'7 6.0
2016-Jan-24 03:28N 57°38' E 010°37'0 0.0
2016-Jan-24 00:28N 57°38' E 010°37'0 0.0
2016-Jan-23 20:31N 57°38' E 010°37'9 9.1
2016-Jan-23 19:32N 57°35' E 010°52'1717.4
2016-Jan-23 18:33N 57°29' E 011°22'1716.7
2016-Jan-23 17:33N 57°14' E 011°35'11316.0
2016-Jan-23 10:29N 55°22' E 011°02'1313.7
2016-Jan-23 09:33N 55°10' E 011°01'1817.7
2016-Jan-23 08:34N 54°53' E 010°51'1515.2
2016-Jan-23 07:34N 54°38' E 010°54'1717.5
2016-Jan-23 06:33N 54°32' E 011°23'1717.2
2016-Jan-23 05:33N 54°26' E 011°51'1414.3
2016-Jan-23 04:34N 54°31' E 012°13'1615.6
2016-Jan-23 03:33N 54°42' E 012°32'4016.7
2016-Jan-23 01:10N 54°58' E 013°36'1016.8
2016-Jan-23 00:33N 55°01' E 013°53'1616.0
2016-Jan-22 23:33N 55°10' E 014°16'1616.4
2016-Jan-22 22:33N 55°24' E 014°32'1616.4
2016-Jan-22 21:33N 55°33' E 014°56'11616.4
2016-Jan-22 14:28N 56°58' E 017°18'1617.6
2016-Jan-22 13:34N 57°13' E 017°28'1717.3
2016-Jan-22 12:33N 57°29' E 017°40'  

Dump ship's entire track history